sensor_id;sensor_type;location;lat;lon;timestamp;temperature;humidity
18365;DHT22;9309;52.126;11.616;2022-10-17T00:00:43;14.20;72.80
18365;DHT22;9309;52.126;11.616;2022-10-17T00:03:10;14.20;73.00
18365;DHT22;9309;52.126;11.616;2022-10-17T00:05:39;14.10;73.20
18365;DHT22;9309;52.126;11.616;2022-10-17T00:08:06;14.00;73.50
18365;DHT22;9309;52.126;11.616;2022-10-17T00:10:33;13.90;73.90
18365;DHT22;9309;52.126;11.616;2022-10-17T00:13:00;13.80;74.50
18365;DHT22;9309;52.126;11.616;2022-10-17T00:15:27;13.80;74.60
18365;DHT22;9309;52.126;11.616;2022-10-17T00:17:55;13.70;75.00
18365;DHT22;9309;52.126;11.616;2022-10-17T00:20:22;13.40;76.40
18365;DHT22;9309;52.126;11.616;2022-10-17T00:22:50;13.30;77.10
18365;DHT22;9309;52.126;11.616;2022-10-17T00:25:17;13.00;78.00
18365;DHT22;9309;52.126;11.616;2022-10-17T00:27:44;13.10;78.00
18365;DHT22;9309;52.126;11.616;2022-10-17T00:30:14;13.20;77.90
18365;DHT22;9309;52.126;11.616;2022-10-17T00:32:41;13.20;77.80
18365;DHT22;9309;52.126;11.616;2022-10-17T00:35:10;13.20;77.70
18365;DHT22;9309;52.126;11.616;2022-10-17T00:37:37;13.20;77.50
18365;DHT22;9309;52.126;11.616;2022-10-17T00:40:05;13.10;78.20
18365;DHT22;9309;52.126;11.616;2022-10-17T00:42:32;13.10;78.20
18365;DHT22;9309;52.126;11.616;2022-10-17T00:45:12;13.00;78.60
18365;DHT22;9309;52.126;11.616;2022-10-17T00:47:43;12.90;79.00
18365;DHT22;9309;52.126;11.616;2022-10-17T00:50:13;12.90;79.10
18365;DHT22;9309;52.126;11.616;2022-10-17T00:52:40;12.90;79.10
18365;DHT22;9309;52.126;11.616;2022-10-17T00:55:12;12.80;79.70
18365;DHT22;9309;52.126;11.616;2022-10-17T00:57:40;12.90;79.30
18365;DHT22;9309;52.126;11.616;2022-10-17T01:00:09;12.90;79.40
18365;DHT22;9309;52.126;11.616;2022-10-17T01:02:37;12.90;79.40
18365;DHT22;9309;52.126;11.616;2022-10-17T01:05:05;13.10;78.40
18365;DHT22;9309;52.126;11.616;2022-10-17T01:07:35;13.20;78.30
18365;DHT22;9309;52.126;11.616;2022-10-17T01:10:04;13.30;77.80
18365;DHT22;9309;52.126;11.616;2022-10-17T01:12:46;13.30;77.70
18365;DHT22;9309;52.126;11.616;2022-10-17T01:15:23;13.10;78.20
18365;DHT22;9309;52.126;11.616;2022-10-17T01:18:06;13.10;78.60
18365;DHT22;9309;52.126;11.616;2022-10-17T01:20:57;13.20;78.20
18365;DHT22;9309;52.126;11.616;2022-10-17T01:30:43;13.20;78.40
18365;DHT22;9309;52.126;11.616;2022-10-17T01:33:13;13.10;78.80
18365;DHT22;9309;52.126;11.616;2022-10-17T01:35:49;13.00;79.40
18365;DHT22;9309;52.126;11.616;2022-10-17T01:38:22;13.00;79.50
18365;DHT22;9309;52.126;11.616;2022-10-17T01:40:55;12.90;80.50
18365;DHT22;9309;52.126;11.616;2022-10-17T01:43:31;12.90;80.00
18365;DHT22;9309;52.126;11.616;2022-10-17T01:46:06;12.90;80.70
18365;DHT22;9309;52.126;11.616;2022-10-17T01:48:37;12.90;80.80
18365;DHT22;9309;52.126;11.616;2022-10-17T01:51:12;13.10;80.00
18365;DHT22;9309;52.126;11.616;2022-10-17T01:53:45;13.20;79.30
18365;DHT22;9309;52.126;11.616;2022-10-17T01:56:14;13.30;78.90
18365;DHT22;9309;52.126;11.616;2022-10-17T01:58:48;13.40;78.90
18365;DHT22;9309;52.126;11.616;2022-10-17T02:01:20;13.30;79.00
18365;DHT22;9309;52.126;11.616;2022-10-17T02:03:49;13.50;78.80
18365;DHT22;9309;52.126;11.616;2022-10-17T02:06:16;13.40;78.70
18365;DHT22;9309;52.126;11.616;2022-10-17T02:08:45;13.40;79.00
18365;DHT22;9309;52.126;11.616;2022-10-17T02:11:15;13.50;79.20
18365;DHT22;9309;52.126;11.616;2022-10-17T02:13:57;13.50;80.60
18365;DHT22;9309;52.126;11.616;2022-10-17T02:16:34;13.50;80.10
18365;DHT22;9309;52.126;11.616;2022-10-17T02:19:14;13.50;80.60
18365;DHT22;9309;52.126;11.616;2022-10-17T02:21:46;13.50;80.80
18365;DHT22;9309;52.126;11.616;2022-10-17T02:24:21;13.50;81.50
18365;DHT22;9309;52.126;11.616;2022-10-17T02:27:02;13.40;82.40
18365;DHT22;9309;52.126;11.616;2022-10-17T02:29:32;13.40;82.50
18365;DHT22;9309;52.126;11.616;2022-10-17T02:32:05;13.30;82.50
18365;DHT22;9309;52.126;11.616;2022-10-17T02:34:35;13.40;82.50
18365;DHT22;9309;52.126;11.616;2022-10-17T02:37:04;13.40;82.60
18365;DHT22;9309;52.126;11.616;2022-10-17T02:39:34;13.40;82.80
18365;DHT22;9309;52.126;11.616;2022-10-17T02:42:05;13.40;82.70
18365;DHT22;9309;52.126;11.616;2022-10-17T02:44:33;13.40;83.00
18365;DHT22;9309;52.126;11.616;2022-10-17T02:47:06;13.30;83.20
18365;DHT22;9309;52.126;11.616;2022-10-17T02:49:39;13.30;83.30
18365;DHT22;9309;52.126;11.616;2022-10-17T02:52:13;13.30;83.10
18365;DHT22;9309;52.126;11.616;2022-10-17T02:54:43;13.20;84.00
18365;DHT22;9309;52.126;11.616;2022-10-17T02:57:16;13.10;84.90
18365;DHT22;9309;52.126;11.616;2022-10-17T02:59:44;13.10;85.10
18365;DHT22;9309;52.126;11.616;2022-10-17T03:02:13;13.10;85.20
18365;DHT22;9309;52.126;11.616;2022-10-17T03:04:42;13.00;86.60
18365;DHT22;9309;52.126;11.616;2022-10-17T03:07:09;13.00;86.80
18365;DHT22;9309;52.126;11.616;2022-10-17T03:09:37;12.90;87.50
18365;DHT22;9309;52.126;11.616;2022-10-17T03:12:04;13.00;87.50
18365;DHT22;9309;52.126;11.616;2022-10-17T03:14:31;13.00;88.40
18365;DHT22;9309;52.126;11.616;2022-10-17T03:16:58;13.10;87.30
18365;DHT22;9309;52.126;11.616;2022-10-17T03:19:27;13.00;89.60
18365;DHT22;9309;52.126;11.616;2022-10-17T03:21:54;13.20;88.20
18365;DHT22;9309;52.126;11.616;2022-10-17T03:24:21;13.30;87.40
18365;DHT22;9309;52.126;11.616;2022-10-17T03:26:49;13.30;87.40
18365;DHT22;9309;52.126;11.616;2022-10-17T03:29:16;13.40;87.20
18365;DHT22;9309;52.126;11.616;2022-10-17T03:31:43;13.40;87.10
18365;DHT22;9309;52.126;11.616;2022-10-17T03:34:11;13.40;88.20
18365;DHT22;9309;52.126;11.616;2022-10-17T03:36:39;13.50;87.40
18365;DHT22;9309;52.126;11.616;2022-10-17T03:39:06;13.40;88.10
18365;DHT22;9309;52.126;11.616;2022-10-17T03:41:33;13.30;89.50
18365;DHT22;9309;52.126;11.616;2022-10-17T03:44:00;13.20;89.70
18365;DHT22;9309;52.126;11.616;2022-10-17T03:46:27;13.20;90.80
18365;DHT22;9309;52.126;11.616;2022-10-17T03:48:56;13.30;90.40
18365;DHT22;9309;52.126;11.616;2022-10-17T03:51:23;13.10;91.50
18365;DHT22;9309;52.126;11.616;2022-10-17T03:53:56;13.40;90.20
18365;DHT22;9309;52.126;11.616;2022-10-17T03:56:24;13.50;89.20
18365;DHT22;9309;52.126;11.616;2022-10-17T03:58:59;13.50;89.80
18365;DHT22;9309;52.126;11.616;2022-10-17T04:01:27;13.40;90.40
18365;DHT22;9309;52.126;11.616;2022-10-17T04:03:55;13.30;91.00
18365;DHT22;9309;52.126;11.616;2022-10-17T04:06:25;13.30;91.60
18365;DHT22;9309;52.126;11.616;2022-10-17T04:08:53;13.20;92.60
18365;DHT22;9309;52.126;11.616;2022-10-17T04:11:28;13.30;92.00
18365;DHT22;9309;52.126;11.616;2022-10-17T04:13:59;13.30;91.90
18365;DHT22;9309;52.126;11.616;2022-10-17T04:16:28;13.30;91.80
18365;DHT22;9309;52.126;11.616;2022-10-17T04:18:59;13.30;91.80
18365;DHT22;9309;52.126;11.616;2022-10-17T04:21:29;13.30;91.90
18365;DHT22;9309;52.126;11.616;2022-10-17T04:24:01;13.30;92.00
18365;DHT22;9309;52.126;11.616;2022-10-17T04:26:44;13.20;92.50
18365;DHT22;9309;52.126;11.616;2022-10-17T04:29:12;13.20;92.60
18365;DHT22;9309;52.126;11.616;2022-10-17T04:31:41;13.20;92.80
18365;DHT22;9309;52.126;11.616;2022-10-17T04:34:19;13.10;93.20
18365;DHT22;9309;52.126;11.616;2022-10-17T04:36:47;13.10;93.60
18365;DHT22;9309;52.126;11.616;2022-10-17T04:39:14;13.10;93.50
18365;DHT22;9309;52.126;11.616;2022-10-17T04:41:44;13.10;93.60
18365;DHT22;9309;52.126;11.616;2022-10-17T04:44:11;13.10;94.10
18365;DHT22;9309;52.126;11.616;2022-10-17T04:46:43;13.10;94.40
18365;DHT22;9309;52.126;11.616;2022-10-17T04:49:10;13.00;94.40
18365;DHT22;9309;52.126;11.616;2022-10-17T04:51:39;13.00;94.60
18365;DHT22;9309;52.126;11.616;2022-10-17T04:54:16;12.90;94.90
18365;DHT22;9309;52.126;11.616;2022-10-17T04:56:47;13.00;95.00
18365;DHT22;9309;52.126;11.616;2022-10-17T04:59:14;13.10;94.90
18365;DHT22;9309;52.126;11.616;2022-10-17T05:01:43;13.20;94.30
18365;DHT22;9309;52.126;11.616;2022-10-17T05:04:10;13.20;93.80
18365;DHT22;9309;52.126;11.616;2022-10-17T05:06:37;13.20;93.90
18365;DHT22;9309;52.126;11.616;2022-10-17T05:09:28;13.20;93.90
18365;DHT22;9309;52.126;11.616;2022-10-17T05:11:56;13.30;93.80
18365;DHT22;9309;52.126;11.616;2022-10-17T05:14:24;13.30;93.00
18365;DHT22;9309;52.126;11.616;2022-10-17T05:16:51;13.40;92.70
18365;DHT22;9309;52.126;11.616;2022-10-17T05:19:19;13.40;92.40
18365;DHT22;9309;52.126;11.616;2022-10-17T05:21:48;13.40;92.40
18365;DHT22;9309;52.126;11.616;2022-10-17T05:24:15;13.40;92.20
18365;DHT22;9309;52.126;11.616;2022-10-17T05:26:42;13.20;93.20
18365;DHT22;9309;52.126;11.616;2022-10-17T05:29:10;13.10;93.70
18365;DHT22;9309;52.126;11.616;2022-10-17T05:31:43;13.10;93.80
18365;DHT22;9309;52.126;11.616;2022-10-17T05:34:11;13.10;93.90
18365;DHT22;9309;52.126;11.616;2022-10-17T05:36:38;13.10;94.30
18365;DHT22;9309;52.126;11.616;2022-10-17T05:39:06;13.30;93.70
18365;DHT22;9309;52.126;11.616;2022-10-17T05:41:34;13.20;93.60
18365;DHT22;9309;52.126;11.616;2022-10-17T05:44:01;13.20;94.20
18365;DHT22;9309;52.126;11.616;2022-10-17T05:46:38;13.20;93.80
18365;DHT22;9309;52.126;11.616;2022-10-17T05:49:05;13.40;93.40
18365;DHT22;9309;52.126;11.616;2022-10-17T05:51:33;13.50;92.40
18365;DHT22;9309;52.126;11.616;2022-10-17T05:54:04;13.30;92.70
18365;DHT22;9309;52.126;11.616;2022-10-17T05:56:32;13.20;93.30
18365;DHT22;9309;52.126;11.616;2022-10-17T05:58:59;13.30;93.30
18365;DHT22;9309;52.126;11.616;2022-10-17T06:01:34;13.20;93.80
18365;DHT22;9309;52.126;11.616;2022-10-17T06:04:03;13.30;93.50
18365;DHT22;9309;52.126;11.616;2022-10-17T06:06:31;13.40;93.20
18365;DHT22;9309;52.126;11.616;2022-10-17T06:08:58;13.40;93.40
18365;DHT22;9309;52.126;11.616;2022-10-17T06:11:30;13.40;93.00
18365;DHT22;9309;52.126;11.616;2022-10-17T06:13:58;13.60;92.10
18365;DHT22;9309;52.126;11.616;2022-10-17T06:16:27;13.80;90.30
18365;DHT22;9309;52.126;11.616;2022-10-17T06:18:54;13.70;90.60
18365;DHT22;9309;52.126;11.616;2022-10-17T06:21:24;13.70;90.80
18365;DHT22;9309;52.126;11.616;2022-10-17T06:23:58;13.80;90.80
18365;DHT22;9309;52.126;11.616;2022-10-17T06:26:34;13.80;90.60
18365;DHT22;9309;52.126;11.616;2022-10-17T06:29:01;13.80;91.20
18365;DHT22;9309;52.126;11.616;2022-10-17T06:31:33;13.80;91.00
18365;DHT22;9309;52.126;11.616;2022-10-17T06:34:00;14.00;90.80
18365;DHT22;9309;52.126;11.616;2022-10-17T06:36:29;14.10;90.60
18365;DHT22;9309;52.126;11.616;2022-10-17T06:38:56;14.20;90.20
18365;DHT22;9309;52.126;11.616;2022-10-17T06:41:31;14.30;90.00
18365;DHT22;9309;52.126;11.616;2022-10-17T06:44:03;14.30;90.20
18365;DHT22;9309;52.126;11.616;2022-10-17T06:46:50;14.30;89.60
18365;DHT22;9309;52.126;11.616;2022-10-17T06:49:17;14.30;89.90
18365;DHT22;9309;52.126;11.616;2022-10-17T06:51:58;14.40;89.70
18365;DHT22;9309;52.126;11.616;2022-10-17T06:54:45;14.60;88.70
18365;DHT22;9309;52.126;11.616;2022-10-17T06:57:33;14.70;87.80
18365;DHT22;9309;52.126;11.616;2022-10-17T07:00:23;14.80;88.00
18365;DHT22;9309;52.126;11.616;2022-10-17T07:02:53;15.00;87.00
18365;DHT22;9309;52.126;11.616;2022-10-17T07:05:20;15.10;86.90
18365;DHT22;9309;52.126;11.616;2022-10-17T07:07:48;15.20;86.30
18365;DHT22;9309;52.126;11.616;2022-10-17T07:10:15;15.20;85.60
18365;DHT22;9309;52.126;11.616;2022-10-17T07:12:42;15.10;85.80
18365;DHT22;9309;52.126;11.616;2022-10-17T07:15:10;15.00;86.60
18365;DHT22;9309;52.126;11.616;2022-10-17T07:17:38;15.10;86.20
18365;DHT22;9309;52.126;11.616;2022-10-17T07:20:06;15.30;85.50
18365;DHT22;9309;52.126;11.616;2022-10-17T07:22:35;15.40;85.20
18365;DHT22;9309;52.126;11.616;2022-10-17T07:25:03;15.50;85.40
18365;DHT22;9309;52.126;11.616;2022-10-17T07:27:48;15.70;84.90
18365;DHT22;9309;52.126;11.616;2022-10-17T07:30:16;15.70;84.80
18365;DHT22;9309;52.126;11.616;2022-10-17T07:33:05;15.80;84.40
18365;DHT22;9309;52.126;11.616;2022-10-17T07:35:33;15.90;84.40
18365;DHT22;9309;52.126;11.616;2022-10-17T07:38:00;16.00;84.20
18365;DHT22;9309;52.126;11.616;2022-10-17T07:40:28;16.20;83.80
18365;DHT22;9309;52.126;11.616;2022-10-17T07:42:55;16.50;82.80
18365;DHT22;9309;52.126;11.616;2022-10-17T07:45:24;16.80;80.70
18365;DHT22;9309;52.126;11.616;2022-10-17T07:47:55;16.80;79.40
18365;DHT22;9309;52.126;11.616;2022-10-17T07:50:21;16.80;80.40
18365;DHT22;9309;52.126;11.616;2022-10-17T07:52:48;16.90;79.60
18365;DHT22;9309;52.126;11.616;2022-10-17T07:55:15;17.00;79.40
18365;DHT22;9309;52.126;11.616;2022-10-17T07:57:43;17.30;78.20
18365;DHT22;9309;52.126;11.616;2022-10-17T08:00:11;17.70;76.40
18365;DHT22;9309;52.126;11.616;2022-10-17T08:02:40;18.30;73.60
18365;DHT22;9309;52.126;11.616;2022-10-17T08:05:07;18.20;74.30
18365;DHT22;9309;52.126;11.616;2022-10-17T08:07:34;18.30;73.40
18365;DHT22;9309;52.126;11.616;2022-10-17T08:10:01;18.80;72.20
18365;DHT22;9309;52.126;11.616;2022-10-17T08:12:28;19.30;70.70
18365;DHT22;9309;52.126;11.616;2022-10-17T08:14:58;20.10;67.40
18365;DHT22;9309;52.126;11.616;2022-10-17T08:17:24;20.80;64.00
18365;DHT22;9309;52.126;11.616;2022-10-17T08:19:51;21.10;62.60
18365;DHT22;9309;52.126;11.616;2022-10-17T08:22:18;20.90;63.10
18365;DHT22;9309;52.126;11.616;2022-10-17T08:24:44;20.50;64.80
18365;DHT22;9309;52.126;11.616;2022-10-17T08:27:11;20.20;66.20
18365;DHT22;9309;52.126;11.616;2022-10-17T08:29:39;19.90;67.60
18365;DHT22;9309;52.126;11.616;2022-10-17T08:32:07;19.60;68.40
18365;DHT22;9309;52.126;11.616;2022-10-17T08:34:34;19.40;69.60
18365;DHT22;9309;52.126;11.616;2022-10-17T08:37:01;19.20;70.40
18365;DHT22;9309;52.126;11.616;2022-10-17T08:39:28;19.20;70.80
18365;DHT22;9309;52.126;11.616;2022-10-17T08:42:10;19.20;70.90
18365;DHT22;9309;52.126;11.616;2022-10-17T08:44:47;19.20;71.30
18365;DHT22;9309;52.126;11.616;2022-10-17T08:47:23;19.40;70.00
18365;DHT22;9309;52.126;11.616;2022-10-17T08:49:55;19.50;69.20
18365;DHT22;9309;52.126;11.616;2022-10-17T08:52:29;19.70;68.60
18365;DHT22;9309;52.126;11.616;2022-10-17T08:54:57;19.80;68.10
18365;DHT22;9309;52.126;11.616;2022-10-17T08:57:24;19.90;67.70
18365;DHT22;9309;52.126;11.616;2022-10-17T08:59:53;20.00;67.20
18365;DHT22;9309;52.126;11.616;2022-10-17T09:02:36;20.10;66.20
18365;DHT22;9309;52.126;11.616;2022-10-17T09:05:23;20.30;66.30
18365;DHT22;9309;52.126;11.616;2022-10-17T09:07:58;20.30;65.10
18365;DHT22;9309;52.126;11.616;2022-10-17T09:10:35;20.30;65.60
18365;DHT22;9309;52.126;11.616;2022-10-17T09:13:14;20.40;65.40
18365;DHT22;9309;52.126;11.616;2022-10-17T09:15:53;20.50;65.40
18365;DHT22;9309;52.126;11.616;2022-10-17T09:18:26;20.50;65.20
18365;DHT22;9309;52.126;11.616;2022-10-17T09:20:56;20.60;65.10
18365;DHT22;9309;52.126;11.616;2022-10-17T09:23:26;20.70;64.70
18365;DHT22;9309;52.126;11.616;2022-10-17T09:25:57;20.80;63.90
18365;DHT22;9309;52.126;11.616;2022-10-17T09:28:28;20.90;63.50
18365;DHT22;9309;52.126;11.616;2022-10-17T09:31:00;21.10;62.60
18365;DHT22;9309;52.126;11.616;2022-10-17T09:33:31;21.20;62.90
18365;DHT22;9309;52.126;11.616;2022-10-17T09:35:59;21.30;61.80
18365;DHT22;9309;52.126;11.616;2022-10-17T09:38:37;21.50;60.80
18365;DHT22;9309;52.126;11.616;2022-10-17T09:41:10;21.40;60.40
18365;DHT22;9309;52.126;11.616;2022-10-17T09:43:39;21.50;60.50
18365;DHT22;9309;52.126;11.616;2022-10-17T09:46:09;22.30;58.30
18365;DHT22;9309;52.126;11.616;2022-10-17T09:48:42;22.80;55.90
18365;DHT22;9309;52.126;11.616;2022-10-17T09:51:12;22.50;56.60
18365;DHT22;9309;52.126;11.616;2022-10-17T09:53:41;22.50;56.30
18365;DHT22;9309;52.126;11.616;2022-10-17T09:56:13;22.00;57.40
18365;DHT22;9309;52.126;11.616;2022-10-17T09:58:42;21.90;57.90
18365;DHT22;9309;52.126;11.616;2022-10-17T10:01:16;21.90;58.00
18365;DHT22;9309;52.126;11.616;2022-10-17T10:03:44;22.00;57.70
18365;DHT22;9309;52.126;11.616;2022-10-17T10:06:13;22.10;58.00
18365;DHT22;9309;52.126;11.616;2022-10-17T10:08:48;22.10;58.20
18365;DHT22;9309;52.126;11.616;2022-10-17T10:11:16;22.00;58.10
18365;DHT22;9309;52.126;11.616;2022-10-17T10:13:45;21.90;58.00
18365;DHT22;9309;52.126;11.616;2022-10-17T10:16:20;21.90;58.40
18365;DHT22;9309;52.126;11.616;2022-10-17T10:18:50;21.90;57.60
18365;DHT22;9309;52.126;11.616;2022-10-17T10:21:18;22.00;57.70
18365;DHT22;9309;52.126;11.616;2022-10-17T10:24:10;22.30;57.50
18365;DHT22;9309;52.126;11.616;2022-10-17T10:26:39;22.60;56.20
18365;DHT22;9309;52.126;11.616;2022-10-17T10:29:19;23.00;55.30
18365;DHT22;9309;52.126;11.616;2022-10-17T10:31:47;23.30;53.70
18365;DHT22;9309;52.126;11.616;2022-10-17T10:34:19;23.10;54.10
18365;DHT22;9309;52.126;11.616;2022-10-17T10:36:59;23.00;54.80
18365;DHT22;9309;52.126;11.616;2022-10-17T10:39:33;22.90;55.10
18365;DHT22;9309;52.126;11.616;2022-10-17T10:42:03;23.00;55.00
18365;DHT22;9309;52.126;11.616;2022-10-17T10:44:32;23.10;54.30
18365;DHT22;9309;52.126;11.616;2022-10-17T10:47:16;23.20;54.40
18365;DHT22;9309;52.126;11.616;2022-10-17T10:49:45;23.50;53.60
18365;DHT22;9309;52.126;11.616;2022-10-17T10:52:18;23.80;52.90
18365;DHT22;9309;52.126;11.616;2022-10-17T10:54:53;24.10;51.40
18365;DHT22;9309;52.126;11.616;2022-10-17T10:57:24;24.60;50.10
18365;DHT22;9309;52.126;11.616;2022-10-17T10:59:56;25.40;48.80
18365;DHT22;9309;52.126;11.616;2022-10-17T11:02:29;25.50;47.40
18365;DHT22;9309;52.126;11.616;2022-10-17T11:05:03;25.00;49.00
18365;DHT22;9309;52.126;11.616;2022-10-17T11:07:33;24.40;50.60
18365;DHT22;9309;52.126;11.616;2022-10-17T11:10:07;24.00;51.20
18365;DHT22;9309;52.126;11.616;2022-10-17T11:12:36;23.80;51.80
18365;DHT22;9309;52.126;11.616;2022-10-17T11:15:08;23.70;52.60
18365;DHT22;9309;52.126;11.616;2022-10-17T11:17:45;23.60;52.60
18365;DHT22;9309;52.126;11.616;2022-10-17T11:20:23;23.70;52.70
18365;DHT22;9309;52.126;11.616;2022-10-17T11:22:55;23.80;52.50
18365;DHT22;9309;52.126;11.616;2022-10-17T11:25:34;24.20;51.50
18365;DHT22;9309;52.126;11.616;2022-10-17T11:28:01;24.00;52.70
18365;DHT22;9309;52.126;11.616;2022-10-17T11:30:38;24.10;51.80
18365;DHT22;9309;52.126;11.616;2022-10-17T11:33:06;24.10;52.30
18365;DHT22;9309;52.126;11.616;2022-10-17T11:35:38;24.70;50.70
18365;DHT22;9309;52.126;11.616;2022-10-17T11:38:13;26.50;47.90
18365;DHT22;9309;52.126;11.616;2022-10-17T11:40:45;28.90;42.30
18365;DHT22;9309;52.126;11.616;2022-10-17T11:43:17;29.70;40.20
18365;DHT22;9309;52.126;11.616;2022-10-17T11:45:49;29.10;41.40
18365;DHT22;9309;52.126;11.616;2022-10-17T11:48:22;28.60;42.10
18365;DHT22;9309;52.126;11.616;2022-10-17T11:50:57;29.00;41.00
18365;DHT22;9309;52.126;11.616;2022-10-17T11:53:28;28.40;42.20
18365;DHT22;9309;52.126;11.616;2022-10-17T11:55:57;29.10;40.40
18365;DHT22;9309;52.126;11.616;2022-10-17T11:58:35;28.60;40.80
18365;DHT22;9309;52.126;11.616;2022-10-17T12:01:14;27.30;43.60
18365;DHT22;9309;52.126;11.616;2022-10-17T12:04:05;25.80;45.90
18365;DHT22;9309;52.126;11.616;2022-10-17T12:06:47;25.40;46.80
18365;DHT22;9309;52.126;11.616;2022-10-17T12:09:24;25.30;47.20
18365;DHT22;9309;52.126;11.616;2022-10-17T12:11:55;25.30;47.20
18365;DHT22;9309;52.126;11.616;2022-10-17T12:14:40;24.90;48.00
18365;DHT22;9309;52.126;11.616;2022-10-17T12:17:27;24.90;48.80
18365;DHT22;9309;52.126;11.616;2022-10-17T12:20:16;24.80;49.50
18365;DHT22;9309;52.126;11.616;2022-10-17T12:22:52;24.70;49.50
18365;DHT22;9309;52.126;11.616;2022-10-17T12:25:22;24.70;49.20
18365;DHT22;9309;52.126;11.616;2022-10-17T12:28:11;24.80;49.60
18365;DHT22;9309;52.126;11.616;2022-10-17T12:30:53;24.90;48.50
18365;DHT22;9309;52.126;11.616;2022-10-17T12:33:29;25.10;48.00
18365;DHT22;9309;52.126;11.616;2022-10-17T12:42:48;26.00;47.60
18365;DHT22;9309;52.126;11.616;2022-10-17T12:45:48;26.00;47.00
18365;DHT22;9309;52.126;11.616;2022-10-17T12:48:59;25.90;47.40
18365;DHT22;9309;52.126;11.616;2022-10-17T12:51:29;25.80;48.10
18365;DHT22;9309;52.126;11.616;2022-10-17T12:54:22;25.50;48.50
18365;DHT22;9309;52.126;11.616;2022-10-17T12:56:50;25.20;48.90
18365;DHT22;9309;52.126;11.616;2022-10-17T12:59:20;25.20;48.10
18365;DHT22;9309;52.126;11.616;2022-10-17T13:01:51;25.60;47.80
18365;DHT22;9309;52.126;11.616;2022-10-17T13:04:19;26.30;46.50
18365;DHT22;9309;52.126;11.616;2022-10-17T13:06:48;26.40;44.90
18365;DHT22;9309;52.126;11.616;2022-10-17T13:09:21;26.90;44.30
18365;DHT22;9309;52.126;11.616;2022-10-17T13:11:50;28.70;40.80
18365;DHT22;9309;52.126;11.616;2022-10-17T13:14:20;30.60;36.60
18365;DHT22;9309;52.126;11.616;2022-10-17T13:16:53;31.50;34.40
18365;DHT22;9309;52.126;11.616;2022-10-17T13:19:22;30.90;36.30
18365;DHT22;9309;52.126;11.616;2022-10-17T13:21:50;31.00;35.60
18365;DHT22;9309;52.126;11.616;2022-10-17T13:24:25;31.00;35.20
18365;DHT22;9309;52.126;11.616;2022-10-17T13:26:55;30.60;35.60
18365;DHT22;9309;52.126;11.616;2022-10-17T13:29:23;29.70;36.40
18365;DHT22;9309;52.126;11.616;2022-10-17T13:31:52;28.40;38.60
18365;DHT22;9309;52.126;11.616;2022-10-17T13:34:20;27.40;40.20
18365;DHT22;9309;52.126;11.616;2022-10-17T13:36:50;26.50;41.80
18365;DHT22;9309;52.126;11.616;2022-10-17T13:39:22;25.80;43.50
18365;DHT22;9309;52.126;11.616;2022-10-17T13:41:50;25.30;44.50
18365;DHT22;9309;52.126;11.616;2022-10-17T13:44:23;25.00;45.50
18365;DHT22;9309;52.126;11.616;2022-10-17T13:46:51;24.80;45.60
18365;DHT22;9309;52.126;11.616;2022-10-17T13:49:21;25.00;45.10
18365;DHT22;9309;52.126;11.616;2022-10-17T13:51:50;25.10;45.30
18365;DHT22;9309;52.126;11.616;2022-10-17T13:54:27;25.30;45.00
18365;DHT22;9309;52.126;11.616;2022-10-17T13:56:57;25.30;45.30
18365;DHT22;9309;52.126;11.616;2022-10-17T13:59:31;25.40;44.80
18365;DHT22;9309;52.126;11.616;2022-10-17T14:02:00;25.30;44.80
18365;DHT22;9309;52.126;11.616;2022-10-17T14:04:27;25.30;44.90
18365;DHT22;9309;52.126;11.616;2022-10-17T14:06:54;25.20;45.90
18365;DHT22;9309;52.126;11.616;2022-10-17T14:09:24;25.10;46.00
18365;DHT22;9309;52.126;11.616;2022-10-17T14:12:00;25.00;45.90
18365;DHT22;9309;52.126;11.616;2022-10-17T14:14:29;25.00;46.20
18365;DHT22;9309;52.126;11.616;2022-10-17T14:16:56;24.90;46.50
18365;DHT22;9309;52.126;11.616;2022-10-17T14:19:25;24.80;46.40
18365;DHT22;9309;52.126;11.616;2022-10-17T14:21:53;24.80;46.20
18365;DHT22;9309;52.126;11.616;2022-10-17T14:24:28;24.80;46.60
18365;DHT22;9309;52.126;11.616;2022-10-17T14:26:57;24.90;46.10
18365;DHT22;9309;52.126;11.616;2022-10-17T14:29:28;25.00;45.70
18365;DHT22;9309;52.126;11.616;2022-10-17T14:31:57;25.00;45.70
18365;DHT22;9309;52.126;11.616;2022-10-17T14:34:29;25.00;45.40
18365;DHT22;9309;52.126;11.616;2022-10-17T14:36:56;25.00;45.30
18365;DHT22;9309;52.126;11.616;2022-10-17T14:39:25;25.00;45.70
18365;DHT22;9309;52.126;11.616;2022-10-17T14:41:53;25.00;46.20
18365;DHT22;9309;52.126;11.616;2022-10-17T14:44:24;24.90;46.10
18365;DHT22;9309;52.126;11.616;2022-10-17T14:46:56;24.70;46.60
18365;DHT22;9309;52.126;11.616;2022-10-17T14:49:32;24.50;46.60
18365;DHT22;9309;52.126;11.616;2022-10-17T14:52:28;24.40;47.10
18365;DHT22;9309;52.126;11.616;2022-10-17T14:54:57;24.10;47.50
18365;DHT22;9309;52.126;11.616;2022-10-17T14:57:27;24.10;47.90
18365;DHT22;9309;52.126;11.616;2022-10-17T14:59:55;24.00;48.30
18365;DHT22;9309;52.126;11.616;2022-10-17T15:02:24;23.90;48.70
18365;DHT22;9309;52.126;11.616;2022-10-17T15:04:51;23.70;49.40
18365;DHT22;9309;52.126;11.616;2022-10-17T15:07:19;23.70;49.30
18365;DHT22;9309;52.126;11.616;2022-10-17T15:09:48;23.60;49.90
18365;DHT22;9309;52.126;11.616;2022-10-17T15:12:17;23.50;50.30
18365;DHT22;9309;52.126;11.616;2022-10-17T15:14:44;23.40;50.30
18365;DHT22;9309;52.126;11.616;2022-10-17T15:17:14;23.40;50.10
18365;DHT22;9309;52.126;11.616;2022-10-17T15:19:44;23.40;50.50
18365;DHT22;9309;52.126;11.616;2022-10-17T15:22:10;23.40;50.30
18365;DHT22;9309;52.126;11.616;2022-10-17T15:24:37;23.20;51.00
18365;DHT22;9309;52.126;11.616;2022-10-17T15:27:08;23.20;51.10
18365;DHT22;9309;52.126;11.616;2022-10-17T15:29:39;23.20;51.30
18365;DHT22;9309;52.126;11.616;2022-10-17T15:32:06;23.10;51.10
18365;DHT22;9309;52.126;11.616;2022-10-17T15:34:32;22.90;52.20
18365;DHT22;9309;52.126;11.616;2022-10-17T15:37:00;22.80;52.40
18365;DHT22;9309;52.126;11.616;2022-10-17T15:39:27;22.80;53.20
18365;DHT22;9309;52.126;11.616;2022-10-17T15:41:54;22.60;54.00
18365;DHT22;9309;52.126;11.616;2022-10-17T15:44:21;22.50;54.50
18365;DHT22;9309;52.126;11.616;2022-10-17T15:46:48;22.50;55.40
18365;DHT22;9309;52.126;11.616;2022-10-17T15:49:17;22.30;55.20
18365;DHT22;9309;52.126;11.616;2022-10-17T15:51:44;22.20;55.40
18365;DHT22;9309;52.126;11.616;2022-10-17T15:54:12;22.00;55.60
18365;DHT22;9309;52.126;11.616;2022-10-17T15:56:40;21.90;56.10
18365;DHT22;9309;52.126;11.616;2022-10-17T15:59:11;21.80;56.30
18365;DHT22;9309;52.126;11.616;2022-10-17T16:01:38;21.60;56.60
18365;DHT22;9309;52.126;11.616;2022-10-17T16:04:07;21.50;57.00
18365;DHT22;9309;52.126;11.616;2022-10-17T16:06:37;21.40;57.30
18365;DHT22;9309;52.126;11.616;2022-10-17T16:09:03;21.30;57.60